Austin, Texas
Traffic Map
Current Weather Conditions
Austin, Texas
Clear
Clear
65°
Feels Like: 65°
Wind Chill: 65° Ceiling: Unl
Heat Index: 65° Visibility: 10mi
Dew Point: 51° Wind: 3mph
Humidity: 61% Direction: 50° (NE)
Pressure: 30.06in Gusts: 0mph
Raw Report DataKATT 240651Z AUTO 05003KT 10SM CLR 18/11 A3006 RMK AO2 SLP170 T01830106
Traffic Incident Summary
Active as of:
Severity:
Category:
InformationThere was an issue retrieving the traffic information for this location. Please try a different location or try again shortly.
Advertisements